Terminal Aerodrome Forecast
Issued by NWS Twin Cities, MN

Home | Current Version | Previous Version | Graphics & Text | Print | Product List | Glossary On
Versions: 1 2 3 4 5 6 7 8 9 10 11 12 13 14 15 16 17 18 19 20
266
FTUS43 KMPX 240520
TAFSTC
TAF
KSTC 240520Z 2406/2506 VRB03KT 2SM -RA BR OVC005
     FM241300 02008KT 6SM BR VCSH OVC008
     FM241700 02010KT P6SM BKN013
     FM242200 03009KT P6SM SCT020=

USA.gov is the U.S. government's official web portal to all federal, state and local government web resources and services.